sensor_id;sensor_type;location;lat;lon;timestamp;pressure;altitude;pressure_sealevel;temperature;humidity
3260;BME280;68938;48.150;14.004;2023-04-10T00:00:51;98887.84;;;10.77;65.48
3260;BME280;68938;48.150;14.004;2023-04-10T00:03:18;98881.91;;;10.75;65.65
3260;BME280;68938;48.150;14.004;2023-04-10T00:05:45;98884.47;;;10.75;65.52
3260;BME280;68938;48.150;14.004;2023-04-10T00:08:12;98883.63;;;10.74;65.81
3260;BME280;68938;48.150;14.004;2023-04-10T00:10:39;98885.31;;;10.75;65.57
3260;BME280;68938;48.150;14.004;2023-04-10T00:13:05;98877.69;;;10.72;65.67
3260;BME280;68938;48.150;14.004;2023-04-10T00:15:32;98878.47;;;10.76;65.68
3260;BME280;68938;48.150;14.004;2023-04-10T00:17:59;98879.31;;;10.76;65.51
3260;BME280;68938;48.150;14.004;2023-04-10T00:20:26;98870.81;;;10.73;65.46
3260;BME280;68938;48.150;14.004;2023-04-10T00:22:53;98875.00;;;10.77;65.35
3260;BME280;68938;48.150;14.004;2023-04-10T00:25:20;98871.59;;;10.76;65.33
3260;BME280;68938;48.150;14.004;2023-04-10T00:27:47;98872.53;;;10.74;65.41
3260;BME280;68938;48.150;14.004;2023-04-10T00:30:14;98872.59;;;10.69;65.85
3260;BME280;68938;48.150;14.004;2023-04-10T00:32:41;98863.31;;;10.63;65.71
3260;BME280;68938;48.150;14.004;2023-04-10T00:35:08;98861.75;;;10.55;65.88
3260;BME280;68938;48.150;14.004;2023-04-10T00:37:35;98860.88;;;10.56;66.20
3260;BME280;68938;48.150;14.004;2023-04-10T00:40:03;98860.13;;;10.51;66.41
3260;BME280;68938;48.150;14.004;2023-04-10T00:42:31;98862.72;;;10.48;66.55
3260;BME280;68938;48.150;14.004;2023-04-10T00:44:59;98855.03;;;10.48;66.68
3260;BME280;68938;48.150;14.004;2023-04-10T00:47:26;98843.25;;;10.37;66.90
3260;BME280;68938;48.150;14.004;2023-04-10T00:49:54;98855.16;;;10.41;66.74
3260;BME280;68938;48.150;14.004;2023-04-10T00:52:22;98853.59;;;10.33;67.12
3260;BME280;68938;48.150;14.004;2023-04-10T00:54:50;98860.44;;;10.32;67.18
3260;BME280;68938;48.150;14.004;2023-04-10T00:57:18;98858.81;;;10.25;67.14
3260;BME280;68938;48.150;14.004;2023-04-10T00:59:45;98850.28;;;10.25;67.10
3260;BME280;68938;48.150;14.004;2023-04-10T01:02:11;98860.56;;;10.23;67.13
3260;BME280;68938;48.150;14.004;2023-04-10T01:04:40;98850.41;;;10.17;67.37
3260;BME280;68938;48.150;14.004;2023-04-10T01:13:21;98852.31;;;10.06;67.39
3260;BME280;68938;48.150;14.004;2023-04-10T01:16:01;98850.59;;;10.05;67.56
3260;BME280;68938;48.150;14.004;2023-04-10T01:21:07;98851.78;;;9.84;68.05
3260;BME280;68938;48.150;14.004;2023-04-10T01:26:14;98850.16;;;9.81;68.12
3260;BME280;68938;48.150;14.004;2023-04-10T01:34:18;98844.09;;;9.85;67.29
3260;BME280;68938;48.150;14.004;2023-04-10T01:36:54;98846.66;;;9.85;67.48
3260;BME280;68938;48.150;14.004;2023-04-10T01:39:28;98831.47;;;9.73;67.32
3260;BME280;68938;48.150;14.004;2023-04-10T01:41:57;98851.84;;;9.81;67.07
3260;BME280;68938;48.150;14.004;2023-04-10T01:44:28;98854.41;;;9.81;67.14
3260;BME280;68938;48.150;14.004;2023-04-10T01:46:56;98848.47;;;9.77;66.77
3260;BME280;68938;48.150;14.004;2023-04-10T01:49:27;98845.16;;;9.72;66.60
3260;BME280;68938;48.150;14.004;2023-04-10T01:51:55;98845.19;;;9.69;66.46
3260;BME280;68938;48.150;14.004;2023-04-10T01:54:28;98845.22;;;9.66;66.18
3260;BME280;68938;48.150;14.004;2023-04-10T01:56:59;98838.44;;;9.65;65.90
3260;BME280;68938;48.150;14.004;2023-04-10T01:59:27;98835.88;;;9.63;65.90
3260;BME280;68938;48.150;14.004;2023-04-10T02:01:58;98840.19;;;9.61;65.84
3260;BME280;68938;48.150;14.004;2023-04-10T02:04:26;98843.66;;;9.57;65.59
3260;BME280;68938;48.150;14.004;2023-04-10T02:07:00;98842.09;;;9.47;65.49
3260;BME280;68938;48.150;14.004;2023-04-10T02:12:50;98858.53;;;9.29;65.68
3260;BME280;68938;48.150;14.004;2023-04-10T02:15:20;98853.50;;;9.24;65.94
3260;BME280;68938;48.150;14.004;2023-04-10T02:17:49;98851.81;;;9.23;65.58
3260;BME280;68938;48.150;14.004;2023-04-10T02:20:17;98847.56;;;9.19;65.35
3260;BME280;68938;48.150;14.004;2023-04-10T02:22:45;98855.31;;;9.15;65.60
3260;BME280;68938;48.150;14.004;2023-04-10T02:25:13;98852.03;;;9.07;65.56
3260;BME280;68938;48.150;14.004;2023-04-10T02:27:40;98852.94;;;9.01;66.07
3260;BME280;68938;48.150;14.004;2023-04-10T02:30:08;98857.19;;;9.00;66.12
3260;BME280;68938;48.150;14.004;2023-04-10T02:32:35;98858.19;;;8.89;66.24
3260;BME280;68938;48.150;14.004;2023-04-10T02:35:03;98849.66;;;8.88;66.04
3260;BME280;68938;48.150;14.004;2023-04-10T02:37:30;98858.22;;;8.87;66.35
3260;BME280;68938;48.150;14.004;2023-04-10T02:39:57;98861.66;;;8.85;66.19
3260;BME280;68938;48.150;14.004;2023-04-10T02:42:24;98856.56;;;8.83;65.74
3260;BME280;68938;48.150;14.004;2023-04-10T02:44:52;98859.22;;;8.74;66.70
3260;BME280;68938;48.150;14.004;2023-04-10T02:47:19;98853.25;;;8.73;66.65
3260;BME280;68938;48.150;14.004;2023-04-10T02:49:46;98846.44;;;8.71;66.12
3260;BME280;68938;48.150;14.004;2023-04-10T02:52:13;98846.47;;;8.68;66.44
3260;BME280;68938;48.150;14.004;2023-04-10T02:54:39;98849.94;;;8.65;66.26
3260;BME280;68938;48.150;14.004;2023-04-10T02:57:06;98841.47;;;8.62;66.04
3260;BME280;68938;48.150;14.004;2023-04-10T02:59:33;98833.84;;;8.54;66.02
3260;BME280;68938;48.150;14.004;2023-04-10T03:02:00;98832.13;;;8.54;65.89
3260;BME280;68938;48.150;14.004;2023-04-10T03:04:27;98836.47;;;8.49;65.82
3260;BME280;68938;48.150;14.004;2023-04-10T03:06:57;98840.75;;;8.46;66.39
3260;BME280;68938;48.150;14.004;2023-04-10T03:09:24;98832.28;;;8.39;66.03
3260;BME280;68938;48.150;14.004;2023-04-10T03:11:51;98832.28;;;8.41;66.02
3260;BME280;68938;48.150;14.004;2023-04-10T03:14:18;98832.31;;;8.35;65.56
3260;BME280;68938;48.150;14.004;2023-04-10T03:16:45;98829.78;;;8.30;65.54
3260;BME280;68938;48.150;14.004;2023-04-10T03:19:12;98829.00;;;8.25;66.02
3260;BME280;68938;48.150;14.004;2023-04-10T03:21:39;98830.72;;;8.23;65.84
3260;BME280;68938;48.150;14.004;2023-04-10T03:24:06;98830.75;;;8.17;65.95
3260;BME280;68938;48.150;14.004;2023-04-10T03:26:33;98834.25;;;8.11;66.51
3260;BME280;68938;48.150;14.004;2023-04-10T03:29:00;98831.69;;;8.08;66.37
3260;BME280;68938;48.150;14.004;2023-04-10T03:31:27;98827.50;;;8.04;66.18
3260;BME280;68938;48.150;14.004;2023-04-10T03:33:55;98834.31;;;8.02;65.72
3260;BME280;68938;48.150;14.004;2023-04-10T03:36:22;98831.81;;;7.93;65.67
3260;BME280;68938;48.150;14.004;2023-04-10T03:38:49;98828.44;;;7.91;65.78
3260;BME280;68938;48.150;14.004;2023-04-10T03:41:16;98833.59;;;7.84;65.71
3260;BME280;68938;48.150;14.004;2023-04-10T03:43:44;98830.25;;;7.78;65.92
3260;BME280;68938;48.150;14.004;2023-04-10T03:46:11;98840.47;;;7.75;66.17
3260;BME280;68938;48.150;14.004;2023-04-10T03:48:38;98838.78;;;7.74;66.35
3260;BME280;68938;48.150;14.004;2023-04-10T03:51:05;98843.06;;;7.73;66.03
3260;BME280;68938;48.150;14.004;2023-04-10T03:53:32;98845.63;;;7.67;66.71
3260;BME280;68938;48.150;14.004;2023-04-10T03:56:02;98843.06;;;7.69;66.13
3260;BME280;68938;48.150;14.004;2023-04-10T03:58:29;98845.63;;;7.67;66.06
3260;BME280;68938;48.150;14.004;2023-04-10T04:00:56;98849.06;;;7.66;66.08
3260;BME280;68938;48.150;14.004;2023-04-10T04:03:23;98845.69;;;7.63;65.96
3260;BME280;68938;48.150;14.004;2023-04-10T04:05:50;98847.38;;;7.60;66.18
3260;BME280;68938;48.150;14.004;2023-04-10T04:08:17;98855.09;;;7.56;66.12
3260;BME280;68938;48.150;14.004;2023-04-10T04:10:44;98848.34;;;7.43;66.49
3260;BME280;68938;48.150;14.004;2023-04-10T04:13:11;98858.56;;;7.43;66.56
3260;BME280;68938;48.150;14.004;2023-04-10T04:15:37;98860.28;;;7.42;66.14
3260;BME280;68938;48.150;14.004;2023-04-10T04:18:04;98857.72;;;7.39;66.24
3260;BME280;68938;48.150;14.004;2023-04-10T04:20:31;98860.31;;;7.36;66.14
3260;BME280;68938;48.150;14.004;2023-04-10T04:22:58;98867.09;;;7.34;66.21
3260;BME280;68938;48.150;14.004;2023-04-10T04:25:25;98867.13;;;7.32;66.10
3260;BME280;68938;48.150;14.004;2023-04-10T04:27:52;98868.84;;;7.26;66.56
3260;BME280;68938;48.150;14.004;2023-04-10T04:30:19;98870.56;;;7.24;66.47
3260;BME280;68938;48.150;14.004;2023-04-10T04:32:46;98875.69;;;7.22;66.38
3260;BME280;68938;48.150;14.004;2023-04-10T04:35:13;98869.75;;;7.16;66.43
3260;BME280;68938;48.150;14.004;2023-04-10T04:37:39;98874.00;;;7.18;66.48
3260;BME280;68938;48.150;14.004;2023-04-10T04:40:07;98876.56;;;7.13;66.52
3260;BME280;68938;48.150;14.004;2023-04-10T04:42:34;98880.84;;;7.11;66.86
3260;BME280;68938;48.150;14.004;2023-04-10T04:45:01;98883.38;;;7.11;66.71
3260;BME280;68938;48.150;14.004;2023-04-10T04:47:27;98885.06;;;7.11;66.96
3260;BME280;68938;48.150;14.004;2023-04-10T04:49:54;98881.66;;;7.10;67.25
3260;BME280;68938;48.150;14.004;2023-04-10T04:52:21;98874.91;;;7.08;67.87
3260;BME280;68938;48.150;14.004;2023-04-10T04:54:48;98874.06;;;6.98;68.08
3260;BME280;68938;48.150;14.004;2023-04-10T04:57:15;98877.44;;;7.06;68.09
3260;BME280;68938;48.150;14.004;2023-04-10T04:59:42;98877.44;;;7.06;67.99
3260;BME280;68938;48.150;14.004;2023-04-10T05:02:08;98883.38;;;7.10;67.90
3260;BME280;68938;48.150;14.004;2023-04-10T05:04:35;98886.75;;;7.13;67.79
3260;BME280;68938;48.150;14.004;2023-04-10T05:07:02;98894.41;;;7.13;67.84
3260;BME280;68938;48.150;14.004;2023-04-10T05:09:29;98897.81;;;7.12;67.91
3260;BME280;68938;48.150;14.004;2023-04-10T05:11:56;98896.16;;;7.05;68.71
3260;BME280;68938;48.150;14.004;2023-04-10T05:14:23;98902.09;;;7.09;68.78
3260;BME280;68938;48.150;14.004;2023-04-10T05:16:49;98902.09;;;7.09;68.96
3260;BME280;68938;48.150;14.004;2023-04-10T05:19:16;98902.94;;;7.08;69.30
3260;BME280;68938;48.150;14.004;2023-04-10T05:21:43;98911.41;;;7.13;69.79
3260;BME280;68938;48.150;14.004;2023-04-10T05:24:10;98902.06;;;7.15;70.08
3260;BME280;68938;48.150;14.004;2023-04-10T05:26:37;98881.69;;;7.09;70.21
3260;BME280;68938;48.150;14.004;2023-04-10T05:29:04;98910.56;;;7.19;70.84
3260;BME280;68938;48.150;14.004;2023-04-10T05:31:30;98908.88;;;7.15;70.99
3260;BME280;68938;48.150;14.004;2023-04-10T05:33:58;98908.03;;;7.16;70.59
3260;BME280;68938;48.150;14.004;2023-04-10T05:36:25;98906.31;;;7.13;71.12
3260;BME280;68938;48.150;14.004;2023-04-10T05:38:51;98906.31;;;7.16;71.22
3260;BME280;68938;48.150;14.004;2023-04-10T05:41:19;98913.09;;;7.17;71.37
3260;BME280;68938;48.150;14.004;2023-04-10T05:43:45;98902.88;;;7.20;71.70
3260;BME280;68938;48.150;14.004;2023-04-10T05:46:12;98911.38;;;7.27;71.68
3260;BME280;68938;48.150;14.004;2023-04-10T05:48:39;98916.44;;;7.33;71.57
3260;BME280;68938;48.150;14.004;2023-04-10T05:51:06;98918.13;;;7.39;71.75
3260;BME280;68938;48.150;14.004;2023-04-10T05:53:33;98913.84;;;7.44;71.54
3260;BME280;68938;48.150;14.004;2023-04-10T05:56:00;98915.53;;;7.49;71.76
3260;BME280;68938;48.150;14.004;2023-04-10T05:58:28;98915.47;;;7.55;71.62
3260;BME280;68938;48.150;14.004;2023-04-10T06:00:55;98917.16;;;7.58;71.43
3260;BME280;68938;48.150;14.004;2023-04-10T06:03:23;98924.81;;;7.63;71.14
3260;BME280;68938;48.150;14.004;2023-04-10T06:05:50;98918.00;;;7.62;71.68
3260;BME280;68938;48.150;14.004;2023-04-10T06:08:17;98923.94;;;7.67;71.24
3260;BME280;68938;48.150;14.004;2023-04-10T06:10:45;98927.31;;;7.73;71.15
3260;BME280;68938;48.150;14.004;2023-04-10T06:13:12;98923.03;;;7.78;71.54
3260;BME280;68938;48.150;14.004;2023-04-10T06:15:39;98929.81;;;7.81;71.47
3260;BME280;68938;48.150;14.004;2023-04-10T06:18:06;98931.44;;;7.90;71.11
3260;BME280;68938;48.150;14.004;2023-04-10T06:20:33;98937.38;;;7.96;71.29
3260;BME280;68938;48.150;14.004;2023-04-10T06:23:01;98936.47;;;8.05;71.63
3260;BME280;68938;48.150;14.004;2023-04-10T06:25:28;98938.16;;;8.11;71.30
3260;BME280;68938;48.150;14.004;2023-04-10T06:27:55;98935.56;;;8.12;71.19
3260;BME280;68938;48.150;14.004;2023-04-10T06:30:22;98936.41;;;8.16;71.28
3260;BME280;68938;48.150;14.004;2023-04-10T06:32:49;98935.56;;;8.15;71.50
3260;BME280;68938;48.150;14.004;2023-04-10T06:35:15;98947.44;;;8.22;71.39
3260;BME280;68938;48.150;14.004;2023-04-10T06:37:42;98944.81;;;8.27;70.96
3260;BME280;68938;48.150;14.004;2023-04-10T06:40:12;98941.44;;;8.28;70.82
3260;BME280;68938;48.150;14.004;2023-04-10T06:42:39;98937.16;;;8.28;71.19
3260;BME280;68938;48.150;14.004;2023-04-10T06:45:07;98941.34;;;8.37;71.16
3260;BME280;68938;48.150;14.004;2023-04-10T06:47:34;98940.50;;;8.40;70.97
3260;BME280;68938;48.150;14.004;2023-04-10T06:50:01;98937.94;;;8.41;70.67
3260;BME280;68938;48.150;14.004;2023-04-10T06:52:28;98943.88;;;8.45;70.38
3260;BME280;68938;48.150;14.004;2023-04-10T06:54:55;98938.72;;;8.49;70.65
3260;BME280;68938;48.150;14.004;2023-04-10T06:57:22;98946.34;;;8.56;70.71
3260;BME280;68938;48.150;14.004;2023-04-10T06:59:49;98939.44;;;8.64;70.80
3260;BME280;68938;48.150;14.004;2023-04-10T07:02:15;98939.38;;;8.71;70.71
3260;BME280;68938;48.150;14.004;2023-04-10T07:04:42;98942.66;;;8.84;71.11
3260;BME280;68938;48.150;14.004;2023-04-10T07:07:10;98944.28;;;8.93;71.08
3260;BME280;68938;48.150;14.004;2023-04-10T07:09:36;98945.00;;;9.06;71.41
3260;BME280;68938;48.150;14.004;2023-04-10T07:12:03;98937.16;;;9.19;71.47
3260;BME280;68938;48.150;14.004;2023-04-10T07:14:32;98950.69;;;9.29;70.48
3260;BME280;68938;48.150;14.004;2023-04-10T07:16:59;98949.75;;;9.38;70.03
3260;BME280;68938;48.150;14.004;2023-04-10T07:19:26;98938.53;;;9.46;69.56
3260;BME280;68938;48.150;14.004;2023-04-10T07:21:53;98943.63;;;9.51;69.19
3260;BME280;68938;48.150;14.004;2023-04-10T07:24:20;98937.63;;;9.52;69.22
3260;BME280;68938;48.150;14.004;2023-04-10T07:26:46;98942.69;;;9.57;68.79
3260;BME280;68938;48.150;14.004;2023-04-10T07:29:13;98931.56;;;9.61;68.88
3260;BME280;68938;48.150;14.004;2023-04-10T07:31:40;98937.34;;;9.75;68.73
3260;BME280;68938;48.150;14.004;2023-04-10T07:34:09;98937.22;;;9.83;68.04
3260;BME280;68938;48.150;14.004;2023-04-10T07:36:37;98943.03;;;9.94;67.97
3260;BME280;68938;48.150;14.004;2023-04-10T07:39:03;98937.81;;;10.00;67.53
3260;BME280;68938;48.150;14.004;2023-04-10T07:41:30;98916.31;;;10.10;67.53
3260;BME280;68938;48.150;14.004;2023-04-10T07:43:57;98928.75;;;10.36;67.76
3260;BME280;68938;48.150;14.004;2023-04-10T07:46:24;98928.59;;;10.47;67.28
3260;BME280;68938;48.150;14.004;2023-04-10T07:48:51;98926.72;;;10.57;65.96
3260;BME280;68938;48.150;14.004;2023-04-10T07:51:18;98931.66;;;10.66;65.71
3260;BME280;68938;48.150;14.004;2023-04-10T07:53:45;98927.41;;;10.65;65.00
3260;BME280;68938;48.150;14.004;2023-04-10T07:56:18;98923.66;;;10.84;65.86
3260;BME280;68938;48.150;14.004;2023-04-10T07:58:46;98916.50;;;11.02;65.48
3260;BME280;68938;48.150;14.004;2023-04-10T08:01:14;98919.53;;;11.21;64.59
3260;BME280;68938;48.150;14.004;2023-04-10T08:03:42;98909.19;;;11.24;63.90
3260;BME280;68938;48.150;14.004;2023-04-10T08:06:11;98915.84;;;11.34;64.14
3260;BME280;68938;48.150;14.004;2023-04-10T08:08:39;98909.56;;;11.47;63.54
3260;BME280;68938;48.150;14.004;2023-04-10T08:13:57;98905.69;;;11.70;63.61
3260;BME280;68938;48.150;14.004;2023-04-10T08:16:26;98909.75;;;11.78;63.52
3260;BME280;68938;48.150;14.004;2023-04-10T08:18:55;98906.00;;;11.95;62.77
3260;BME280;68938;48.150;14.004;2023-04-10T08:21:24;98906.66;;;12.03;62.35
3260;BME280;68938;48.150;14.004;2023-04-10T08:23:53;98912.16;;;12.23;62.84
3260;BME280;68938;48.150;14.004;2023-04-10T08:26:21;98924.00;;;12.30;62.09
3260;BME280;68938;48.150;14.004;2023-04-10T08:28:50;98919.09;;;12.21;60.79
3260;BME280;68938;48.150;14.004;2023-04-10T08:31:23;98916.31;;;12.29;61.71
3260;BME280;68938;48.150;14.004;2023-04-10T08:33:51;98906.25;;;12.20;60.41
3260;BME280;68938;48.150;14.004;2023-04-10T08:36:18;98911.66;;;12.45;60.97
3260;BME280;68938;48.150;14.004;2023-04-10T08:38:46;98907.31;;;12.47;60.18
3260;BME280;68938;48.150;14.004;2023-04-10T08:41:16;98915.56;;;12.60;59.06
3260;BME280;68938;48.150;14.004;2023-04-10T08:43:44;98907.78;;;12.61;57.92
3260;BME280;68938;48.150;14.004;2023-04-10T08:46:15;98892.25;;;12.66;58.95
3260;BME280;68938;48.150;14.004;2023-04-10T08:49:01;98889.94;;;12.88;59.29
3260;BME280;68938;48.150;14.004;2023-04-10T08:51:38;98886.59;;;13.15;57.87
3260;BME280;68938;48.150;14.004;2023-04-10T08:54:19;98877.56;;;13.32;57.81
3260;BME280;68938;48.150;14.004;2023-04-10T08:56:53;98888.63;;;13.37;57.56
3260;BME280;68938;48.150;14.004;2023-04-10T08:59:21;98876.38;;;13.43;56.07
3260;BME280;68938;48.150;14.004;2023-04-10T09:01:48;98882.91;;;13.55;56.22
3260;BME280;68938;48.150;14.004;2023-04-10T09:04:15;98878.09;;;13.43;57.97
3260;BME280;68938;48.150;14.004;2023-04-10T09:06:42;98876.56;;;13.65;57.28
3260;BME280;68938;48.150;14.004;2023-04-10T09:09:09;98882.81;;;13.58;55.97
3260;BME280;68938;48.150;14.004;2023-04-10T09:11:57;98873.81;;;13.71;55.92
3260;BME280;68938;48.150;14.004;2023-04-10T09:14:31;98879.22;;;13.90;56.71
3260;BME280;68938;48.150;14.004;2023-04-10T09:17:21;98883.31;;;13.97;54.81
3260;BME280;68938;48.150;14.004;2023-04-10T09:19:53;98877.69;;;14.11;55.13
3260;BME280;68938;48.150;14.004;2023-04-10T09:24:58;98879.72;;;14.02;56.18
3260;BME280;68938;48.150;14.004;2023-04-10T09:27:35;98874.84;;;14.20;54.85
3260;BME280;68938;48.150;14.004;2023-04-10T09:30:03;98867.72;;;14.27;53.83
3260;BME280;68938;48.150;14.004;2023-04-10T09:32:43;98861.63;;;14.30;54.16
3260;BME280;68938;48.150;14.004;2023-04-10T09:35:14;98871.44;;;14.45;54.13
3260;BME280;68938;48.150;14.004;2023-04-10T09:37:44;98863.00;;;14.40;53.51
3260;BME280;68938;48.150;14.004;2023-04-10T09:40:22;98856.63;;;14.52;54.67
3260;BME280;68938;48.150;14.004;2023-04-10T09:42:51;98863.50;;;14.51;53.79
3260;BME280;68938;48.150;14.004;2023-04-10T09:45:19;98851.53;;;14.22;54.34
3260;BME280;68938;48.150;14.004;2023-04-10T09:50:38;98846.53;;;14.69;53.70
3260;BME280;68938;48.150;14.004;2023-04-10T09:53:11;98844.53;;;14.52;53.11
3260;BME280;68938;48.150;14.004;2023-04-10T09:55:42;98841.72;;;14.60;53.34
3260;BME280;68938;48.150;14.004;2023-04-10T09:58:10;98835.66;;;14.61;53.25
3260;BME280;68938;48.150;14.004;2023-04-10T10:00:47;98829.47;;;14.65;53.25
3260;BME280;68938;48.150;14.004;2023-04-10T10:03:17;98830.09;;;14.72;53.73
3260;BME280;68938;48.150;14.004;2023-04-10T10:05:48;98834.50;;;14.93;52.98
3260;BME280;68938;48.150;14.004;2023-04-10T10:08:17;98839.53;;;14.96;52.78
3260;BME280;68938;48.150;14.004;2023-04-10T10:10:53;98829.53;;;15.10;52.90
3260;BME280;68938;48.150;14.004;2023-04-10T10:13:27;98818.66;;;15.26;51.94
3260;BME280;68938;48.150;14.004;2023-04-10T10:16:18;98823.28;;;15.61;51.46
3260;BME280;68938;48.150;14.004;2023-04-10T10:21:44;98813.72;;;15.63;50.07
3260;BME280;68938;48.150;14.004;2023-04-10T10:24:14;98812.81;;;15.64;51.32
3260;BME280;68938;48.150;14.004;2023-04-10T10:26:43;98806.88;;;15.62;50.41
3260;BME280;68938;48.150;14.004;2023-04-10T10:29:11;98808.56;;;15.63;49.38
3260;BME280;68938;48.150;14.004;2023-04-10T10:31:41;98804.13;;;15.67;49.24
3260;BME280;68938;48.150;14.004;2023-04-10T10:34:09;98793.28;;;15.79;49.16
3260;BME280;68938;48.150;14.004;2023-04-10T10:36:36;98799.81;;;15.68;48.95
3260;BME280;68938;48.150;14.004;2023-04-10T10:45:16;98784.53;;;16.04;48.62
3260;BME280;68938;48.150;14.004;2023-04-10T10:47:49;98790.56;;;16.04;48.20
3260;BME280;68938;48.150;14.004;2023-04-10T10:50:17;98785.72;;;16.17;47.65
3260;BME280;68938;48.150;14.004;2023-04-10T10:52:45;98789.00;;;16.21;46.79
3260;BME280;68938;48.150;14.004;2023-04-10T10:57:49;98775.19;;;16.20;44.56
3260;BME280;68938;48.150;14.004;2023-04-10T11:05:58;98773.75;;;16.54;44.25
3260;BME280;68938;48.150;14.004;2023-04-10T11:11:08;98754.06;;;16.50;46.30
3260;BME280;68938;48.150;14.004;2023-04-10T11:13:41;98745.94;;;16.39;44.68
3260;BME280;68938;48.150;14.004;2023-04-10T11:16:22;98737.81;;;16.27;44.99
3260;BME280;68938;48.150;14.004;2023-04-10T11:19:03;98728.47;;;16.23;43.97
3260;BME280;68938;48.150;14.004;2023-04-10T11:22:06;98736.91;;;16.47;43.50
3260;BME280;68938;48.150;14.004;2023-04-10T11:24:53;98730.41;;;16.57;42.95
3260;BME280;68938;48.150;14.004;2023-04-10T11:27:44;98719.56;;;16.49;43.48
3260;BME280;68938;48.150;14.004;2023-04-10T11:30:31;98713.00;;;16.61;43.62
3260;BME280;68938;48.150;14.004;2023-04-10T11:33:00;98705.16;;;16.63;41.63
3260;BME280;68938;48.150;14.004;2023-04-10T11:35:29;98705.66;;;16.71;41.58
3260;BME280;68938;48.150;14.004;2023-04-10T11:38:17;98704.44;;;16.79;39.15
3260;BME280;68938;48.150;14.004;2023-04-10T11:40:55;98689.84;;;16.96;40.09
3260;BME280;68938;48.150;14.004;2023-04-10T11:43:23;98693.69;;;17.06;37.73
3260;BME280;68938;48.150;14.004;2023-04-10T11:46:01;98694.31;;;17.11;38.69
3260;BME280;68938;48.150;14.004;2023-04-10T11:48:29;98680.56;;;17.09;36.14
3260;BME280;68938;48.150;14.004;2023-04-10T11:50:57;98679.38;;;17.16;35.91
3260;BME280;68938;48.150;14.004;2023-04-10T11:53:23;98674.25;;;17.15;37.56
3260;BME280;68938;48.150;14.004;2023-04-10T11:55:50;98661.34;;;16.96;38.04
3260;BME280;68938;48.150;14.004;2023-04-10T11:58:22;98672.38;;;16.82;39.49
3260;BME280;68938;48.150;14.004;2023-04-10T12:01:03;98667.97;;;17.01;39.66
3260;BME280;68938;48.150;14.004;2023-04-10T12:03:43;98664.91;;;16.93;38.44
3260;BME280;68938;48.150;14.004;2023-04-10T12:06:12;98655.28;;;16.95;37.28
3260;BME280;68938;48.150;14.004;2023-04-10T12:08:42;98654.06;;;16.66;37.37
3260;BME280;68938;48.150;14.004;2023-04-10T12:11:10;98653.06;;;16.88;37.15
3260;BME280;68938;48.150;14.004;2023-04-10T12:13:37;98654.28;;;16.80;38.62
3260;BME280;68938;48.150;14.004;2023-04-10T12:16:09;98644.19;;;16.93;38.83
3260;BME280;68938;48.150;14.004;2023-04-10T12:18:36;98648.06;;;17.02;37.58
3260;BME280;68938;48.150;14.004;2023-04-10T12:21:04;98644.00;;;17.33;39.37
3260;BME280;68938;48.150;14.004;2023-04-10T12:23:36;98637.44;;;17.43;37.78
3260;BME280;68938;48.150;14.004;2023-04-10T12:26:15;98635.81;;;17.23;38.29
3260;BME280;68938;48.150;14.004;2023-04-10T12:28:52;98633.28;;;16.87;37.53
3260;BME280;68938;48.150;14.004;2023-04-10T12:31:32;98632.47;;;17.03;36.91
3260;BME280;68938;48.150;14.004;2023-04-10T12:34:01;98616.69;;;17.25;37.85
3260;BME280;68938;48.150;14.004;2023-04-10T12:36:30;98617.81;;;17.02;36.22
3260;BME280;68938;48.150;14.004;2023-04-10T12:38:59;98612.59;;;16.85;37.24
3260;BME280;68938;48.150;14.004;2023-04-10T12:41:29;98605.63;;;17.04;38.02
3260;BME280;68938;48.150;14.004;2023-04-10T12:44:11;98608.34;;;16.84;35.81
3260;BME280;68938;48.150;14.004;2023-04-10T12:46:40;98606.31;;;16.53;36.24
3260;BME280;68938;48.150;14.004;2023-04-10T12:49:13;98589.63;;;16.96;36.47
3260;BME280;68938;48.150;14.004;2023-04-10T12:51:51;98594.72;;;16.98;37.04
3260;BME280;68938;48.150;14.004;2023-04-10T12:54:29;98592.38;;;17.11;36.91
3260;BME280;68938;48.150;14.004;2023-04-10T12:56:58;98586.25;;;17.29;36.97
3260;BME280;68938;48.150;14.004;2023-04-10T12:59:26;98587.78;;;17.16;35.02
3260;BME280;68938;48.150;14.004;2023-04-10T13:01:54;98582.59;;;17.50;36.55
3260;BME280;68938;48.150;14.004;2023-04-10T13:04:22;98583.41;;;17.68;35.75
3260;BME280;68938;48.150;14.004;2023-04-10T13:06:49;98578.22;;;17.68;34.10
3260;BME280;68938;48.150;14.004;2023-04-10T13:09:16;98573.09;;;17.84;34.18
3260;BME280;68938;48.150;14.004;2023-04-10T13:11:43;98552.75;;;17.76;34.03
3260;BME280;68938;48.150;14.004;2023-04-10T13:14:12;98556.84;;;17.63;35.16
3260;BME280;68938;48.150;14.004;2023-04-10T13:16:39;98551.50;;;17.66;34.11
3260;BME280;68938;48.150;14.004;2023-04-10T13:19:06;98544.75;;;17.46;34.67
3260;BME280;68938;48.150;14.004;2023-04-10T13:21:33;98541.13;;;17.66;35.03
3260;BME280;68938;48.150;14.004;2023-04-10T13:24:00;98529.66;;;17.70;34.23
3260;BME280;68938;48.150;14.004;2023-04-10T13:26:27;98526.22;;;17.87;35.07
3260;BME280;68938;48.150;14.004;2023-04-10T13:28:54;98534.44;;;18.11;34.06
3260;BME280;68938;48.150;14.004;2023-04-10T13:31:21;98529.16;;;17.81;33.67
3260;BME280;68938;48.150;14.004;2023-04-10T13:33:48;98522.28;;;17.80;36.52
3260;BME280;68938;48.150;14.004;2023-04-10T13:36:15;98509.72;;;18.04;35.56
3260;BME280;68938;48.150;14.004;2023-04-10T13:38:42;98511.06;;;18.27;34.20
3260;BME280;68938;48.150;14.004;2023-04-10T13:41:09;98510.31;;;18.41;34.77
3260;BME280;68938;48.150;14.004;2023-04-10T13:43:36;98500.19;;;18.66;34.94
3260;BME280;68938;48.150;14.004;2023-04-10T13:46:04;98489.25;;;18.45;34.47
3260;BME280;68938;48.150;14.004;2023-04-10T13:48:31;98490.91;;;18.62;33.78
3260;BME280;68938;48.150;14.004;2023-04-10T13:51:09;98486.19;;;18.69;34.17
3260;BME280;68938;48.150;14.004;2023-04-10T13:53:36;98486.56;;;18.93;33.36
3260;BME280;68938;48.150;14.004;2023-04-10T13:56:03;98478.38;;;19.15;34.01
3260;BME280;68938;48.150;14.004;2023-04-10T13:58:31;98483.91;;;18.94;33.48
3260;BME280;68938;48.150;14.004;2023-04-10T14:00:59;98481.22;;;19.10;33.91
3260;BME280;68938;48.150;14.004;2023-04-10T14:03:27;98474.53;;;19.21;33.04